sensor_id;sensor_type;location;lat;lon;timestamp;temperature;humidity
39957;DHT22;48483;44.640;7.494;2024-01-11T00:01:23;4.60;99.90
39957;DHT22;48483;44.640;7.494;2024-01-11T00:03:50;4.60;99.90
39957;DHT22;48483;44.640;7.494;2024-01-11T00:06:18;4.60;99.90
39957;DHT22;48483;44.640;7.494;2024-01-11T00:08:44;4.60;99.90
39957;DHT22;48483;44.640;7.494;2024-01-11T00:11:11;4.60;99.90
39957;DHT22;48483;44.640;7.494;2024-01-11T00:13:38;4.60;99.90
39957;DHT22;48483;44.640;7.494;2024-01-11T00:16:04;4.70;99.90
39957;DHT22;48483;44.640;7.494;2024-01-11T00:18:31;4.70;99.90
39957;DHT22;48483;44.640;7.494;2024-01-11T00:20:58;4.70;99.90
39957;DHT22;48483;44.640;7.494;2024-01-11T00:23:26;4.70;99.90
39957;DHT22;48483;44.640;7.494;2024-01-11T00:25:52;4.70;99.90
39957;DHT22;48483;44.640;7.494;2024-01-11T00:28:19;4.70;99.90
39957;DHT22;48483;44.640;7.494;2024-01-11T00:30:46;4.70;99.90
39957;DHT22;48483;44.640;7.494;2024-01-11T00:33:12;4.70;99.90
39957;DHT22;48483;44.640;7.494;2024-01-11T00:35:39;4.70;99.90
39957;DHT22;48483;44.640;7.494;2024-01-11T00:38:06;4.70;99.90
39957;DHT22;48483;44.640;7.494;2024-01-11T00:40:34;4.70;99.90
39957;DHT22;48483;44.640;7.494;2024-01-11T00:43:01;4.70;99.90
39957;DHT22;48483;44.640;7.494;2024-01-11T00:45:27;4.60;99.90
39957;DHT22;48483;44.640;7.494;2024-01-11T00:47:54;4.60;99.90
39957;DHT22;48483;44.640;7.494;2024-01-11T00:50:21;4.60;99.90
39957;DHT22;48483;44.640;7.494;2024-01-11T00:52:47;4.60;99.90
39957;DHT22;48483;44.640;7.494;2024-01-11T00:55:14;4.60;99.90
39957;DHT22;48483;44.640;7.494;2024-01-11T00:57:44;4.60;99.90
39957;DHT22;48483;44.640;7.494;2024-01-11T01:00:11;4.60;99.90
39957;DHT22;48483;44.640;7.494;2024-01-11T01:02:41;4.70;99.90
39957;DHT22;48483;44.640;7.494;2024-01-11T01:05:08;4.70;99.90
39957;DHT22;48483;44.640;7.494;2024-01-11T01:07:35;4.70;99.90
39957;DHT22;48483;44.640;7.494;2024-01-11T01:10:02;4.70;99.90
39957;DHT22;48483;44.640;7.494;2024-01-11T01:12:28;4.70;99.90
39957;DHT22;48483;44.640;7.494;2024-01-11T01:14:56;4.60;99.90
39957;DHT22;48483;44.640;7.494;2024-01-11T01:17:23;4.70;99.90
39957;DHT22;48483;44.640;7.494;2024-01-11T01:19:50;4.60;99.90
39957;DHT22;48483;44.640;7.494;2024-01-11T01:22:17;4.60;99.90
39957;DHT22;48483;44.640;7.494;2024-01-11T01:24:43;4.70;99.90
39957;DHT22;48483;44.640;7.494;2024-01-11T01:27:10;4.70;99.90
39957;DHT22;48483;44.640;7.494;2024-01-11T01:29:37;4.70;99.90
39957;DHT22;48483;44.640;7.494;2024-01-11T01:32:05;4.70;99.90
39957;DHT22;48483;44.640;7.494;2024-01-11T01:34:32;4.70;99.90
39957;DHT22;48483;44.640;7.494;2024-01-11T01:36:59;4.70;99.90
39957;DHT22;48483;44.640;7.494;2024-01-11T01:39:25;4.70;99.90
39957;DHT22;48483;44.640;7.494;2024-01-11T01:41:52;4.70;99.90
39957;DHT22;48483;44.640;7.494;2024-01-11T01:44:18;4.60;99.90
39957;DHT22;48483;44.640;7.494;2024-01-11T01:46:45;4.70;99.90
39957;DHT22;48483;44.640;7.494;2024-01-11T01:49:14;4.70;99.90
39957;DHT22;48483;44.640;7.494;2024-01-11T01:51:44;4.70;99.90
39957;DHT22;48483;44.640;7.494;2024-01-11T01:54:11;4.70;99.90
39957;DHT22;48483;44.640;7.494;2024-01-11T01:56:37;4.70;99.90
39957;DHT22;48483;44.640;7.494;2024-01-11T01:59:04;4.70;99.90
39957;DHT22;48483;44.640;7.494;2024-01-11T02:01:31;4.80;99.90
39957;DHT22;48483;44.640;7.494;2024-01-11T02:03:58;4.70;99.90
39957;DHT22;48483;44.640;7.494;2024-01-11T02:06:27;4.70;99.90
39957;DHT22;48483;44.640;7.494;2024-01-11T02:08:56;4.70;99.90
39957;DHT22;48483;44.640;7.494;2024-01-11T02:11:24;4.70;99.90
39957;DHT22;48483;44.640;7.494;2024-01-11T02:13:51;4.70;99.90
39957;DHT22;48483;44.640;7.494;2024-01-11T02:16:18;4.70;99.90
39957;DHT22;48483;44.640;7.494;2024-01-11T02:18:44;4.60;99.90
39957;DHT22;48483;44.640;7.494;2024-01-11T02:21:14;4.60;99.90
39957;DHT22;48483;44.640;7.494;2024-01-11T02:23:44;4.60;99.90
39957;DHT22;48483;44.640;7.494;2024-01-11T02:26:15;4.70;99.90
39957;DHT22;48483;44.640;7.494;2024-01-11T02:28:45;4.70;99.90
39957;DHT22;48483;44.640;7.494;2024-01-11T02:31:12;4.60;99.90
39957;DHT22;48483;44.640;7.494;2024-01-11T02:33:40;4.70;99.90
39957;DHT22;48483;44.640;7.494;2024-01-11T02:36:07;4.70;99.90
39957;DHT22;48483;44.640;7.494;2024-01-11T02:38:35;4.70;99.90
39957;DHT22;48483;44.640;7.494;2024-01-11T02:41:02;4.70;99.90
39957;DHT22;48483;44.640;7.494;2024-01-11T02:43:30;4.70;99.90
39957;DHT22;48483;44.640;7.494;2024-01-11T02:45:57;4.70;99.90
39957;DHT22;48483;44.640;7.494;2024-01-11T02:48:28;4.70;99.90
39957;DHT22;48483;44.640;7.494;2024-01-11T02:50:55;4.70;99.90
39957;DHT22;48483;44.640;7.494;2024-01-11T02:53:21;4.70;99.90
39957;DHT22;48483;44.640;7.494;2024-01-11T02:55:48;4.60;99.90
39957;DHT22;48483;44.640;7.494;2024-01-11T02:58:15;4.70;99.90
39957;DHT22;48483;44.640;7.494;2024-01-11T03:00:43;4.70;99.90
39957;DHT22;48483;44.640;7.494;2024-01-11T03:03:09;4.70;99.90
39957;DHT22;48483;44.640;7.494;2024-01-11T03:05:36;4.60;99.90
39957;DHT22;48483;44.640;7.494;2024-01-11T03:08:03;4.60;99.90
39957;DHT22;48483;44.640;7.494;2024-01-11T03:10:30;4.60;99.90
39957;DHT22;48483;44.640;7.494;2024-01-11T03:12:57;4.70;99.90
39957;DHT22;48483;44.640;7.494;2024-01-11T03:15:24;4.70;99.90
39957;DHT22;48483;44.640;7.494;2024-01-11T03:17:52;4.70;99.90
39957;DHT22;48483;44.640;7.494;2024-01-11T03:20:19;4.70;99.90
39957;DHT22;48483;44.640;7.494;2024-01-11T03:22:49;4.70;99.90
39957;DHT22;48483;44.640;7.494;2024-01-11T03:25:15;4.70;99.90
39957;DHT22;48483;44.640;7.494;2024-01-11T03:27:42;4.70;99.90
39957;DHT22;48483;44.640;7.494;2024-01-11T03:30:09;4.70;99.90
39957;DHT22;48483;44.640;7.494;2024-01-11T03:32:36;4.70;99.90
39957;DHT22;48483;44.640;7.494;2024-01-11T03:35:05;4.70;99.90
39957;DHT22;48483;44.640;7.494;2024-01-11T03:37:32;4.80;99.90
39957;DHT22;48483;44.640;7.494;2024-01-11T03:39:59;4.80;99.90
39957;DHT22;48483;44.640;7.494;2024-01-11T03:42:26;4.80;99.90
39957;DHT22;48483;44.640;7.494;2024-01-11T03:44:53;4.70;99.90
39957;DHT22;48483;44.640;7.494;2024-01-11T03:47:19;4.70;99.90
39957;DHT22;48483;44.640;7.494;2024-01-11T03:49:46;4.70;99.90
39957;DHT22;48483;44.640;7.494;2024-01-11T03:52:14;4.70;99.90
39957;DHT22;48483;44.640;7.494;2024-01-11T03:54:40;4.80;99.90
39957;DHT22;48483;44.640;7.494;2024-01-11T03:57:07;4.70;99.90
39957;DHT22;48483;44.640;7.494;2024-01-11T03:59:34;4.70;99.90
39957;DHT22;48483;44.640;7.494;2024-01-11T04:02:01;4.70;99.90
39957;DHT22;48483;44.640;7.494;2024-01-11T04:04:28;4.70;99.90
39957;DHT22;48483;44.640;7.494;2024-01-11T04:06:55;4.70;99.90
39957;DHT22;48483;44.640;7.494;2024-01-11T04:09:22;4.80;99.90
39957;DHT22;48483;44.640;7.494;2024-01-11T04:11:49;4.70;99.90
39957;DHT22;48483;44.640;7.494;2024-01-11T04:14:16;4.70;99.90
39957;DHT22;48483;44.640;7.494;2024-01-11T04:16:43;4.70;99.90
39957;DHT22;48483;44.640;7.494;2024-01-11T04:19:09;4.70;99.90
39957;DHT22;48483;44.640;7.494;2024-01-11T04:21:36;4.70;99.90
39957;DHT22;48483;44.640;7.494;2024-01-11T04:24:05;4.70;99.90
39957;DHT22;48483;44.640;7.494;2024-01-11T04:26:36;4.70;99.90
39957;DHT22;48483;44.640;7.494;2024-01-11T04:29:03;4.70;99.90
39957;DHT22;48483;44.640;7.494;2024-01-11T04:31:29;4.70;99.90
39957;DHT22;48483;44.640;7.494;2024-01-11T04:33:56;4.70;99.90
39957;DHT22;48483;44.640;7.494;2024-01-11T04:36:23;4.70;99.90
39957;DHT22;48483;44.640;7.494;2024-01-11T04:38:49;4.80;99.90
39957;DHT22;48483;44.640;7.494;2024-01-11T04:41:16;4.80;99.90
39957;DHT22;48483;44.640;7.494;2024-01-11T04:43:44;4.70;99.90
39957;DHT22;48483;44.640;7.494;2024-01-11T04:46:15;4.70;99.90
39957;DHT22;48483;44.640;7.494;2024-01-11T04:48:42;4.70;99.90
39957;DHT22;48483;44.640;7.494;2024-01-11T04:51:08;4.70;99.90
39957;DHT22;48483;44.640;7.494;2024-01-11T04:53:37;4.60;99.90
39957;DHT22;48483;44.640;7.494;2024-01-11T04:56:04;4.60;99.90
39957;DHT22;48483;44.640;7.494;2024-01-11T04:58:31;4.60;99.90
39957;DHT22;48483;44.640;7.494;2024-01-11T05:01:00;4.60;99.90
39957;DHT22;48483;44.640;7.494;2024-01-11T05:03:27;4.60;99.90
39957;DHT22;48483;44.640;7.494;2024-01-11T05:05:54;4.60;99.90
39957;DHT22;48483;44.640;7.494;2024-01-11T05:08:21;4.60;99.90
39957;DHT22;48483;44.640;7.494;2024-01-11T05:10:48;4.60;99.90
39957;DHT22;48483;44.640;7.494;2024-01-11T05:13:15;4.60;99.90
39957;DHT22;48483;44.640;7.494;2024-01-11T05:15:41;4.70;99.90
39957;DHT22;48483;44.640;7.494;2024-01-11T05:18:09;4.60;99.90
39957;DHT22;48483;44.640;7.494;2024-01-11T05:20:37;4.70;99.90
39957;DHT22;48483;44.640;7.494;2024-01-11T05:23:03;4.70;99.90
39957;DHT22;48483;44.640;7.494;2024-01-11T05:25:31;4.60;99.90
39957;DHT22;48483;44.640;7.494;2024-01-11T05:28:00;4.70;99.90
39957;DHT22;48483;44.640;7.494;2024-01-11T05:30:27;4.60;99.90
39957;DHT22;48483;44.640;7.494;2024-01-11T05:32:54;4.60;99.90
39957;DHT22;48483;44.640;7.494;2024-01-11T05:35:22;4.60;99.90
39957;DHT22;48483;44.640;7.494;2024-01-11T05:37:53;4.60;99.90
39957;DHT22;48483;44.640;7.494;2024-01-11T05:40:23;4.70;99.90
39957;DHT22;48483;44.640;7.494;2024-01-11T05:42:50;4.70;99.90
39957;DHT22;48483;44.640;7.494;2024-01-11T05:45:16;4.70;99.90
39957;DHT22;48483;44.640;7.494;2024-01-11T05:47:43;4.70;99.90
39957;DHT22;48483;44.640;7.494;2024-01-11T05:50:10;4.60;99.90
39957;DHT22;48483;44.640;7.494;2024-01-11T05:52:39;4.60;99.90
39957;DHT22;48483;44.640;7.494;2024-01-11T05:55:06;4.60;99.90
39957;DHT22;48483;44.640;7.494;2024-01-11T05:57:33;4.60;99.90
39957;DHT22;48483;44.640;7.494;2024-01-11T06:00:00;4.60;99.90
39957;DHT22;48483;44.640;7.494;2024-01-11T06:02:26;4.60;99.90
39957;DHT22;48483;44.640;7.494;2024-01-11T06:04:53;4.60;99.90
39957;DHT22;48483;44.640;7.494;2024-01-11T06:07:20;4.60;99.90
39957;DHT22;48483;44.640;7.494;2024-01-11T06:09:48;4.60;99.90
39957;DHT22;48483;44.640;7.494;2024-01-11T06:12:15;4.60;99.90
39957;DHT22;48483;44.640;7.494;2024-01-11T06:14:41;4.60;99.90
39957;DHT22;48483;44.640;7.494;2024-01-11T06:17:08;4.60;99.90
39957;DHT22;48483;44.640;7.494;2024-01-11T06:19:37;4.60;99.90
39957;DHT22;48483;44.640;7.494;2024-01-11T06:22:04;4.70;99.90
39957;DHT22;48483;44.640;7.494;2024-01-11T06:24:32;4.60;99.90
39957;DHT22;48483;44.640;7.494;2024-01-11T06:27:00;4.60;99.90
39957;DHT22;48483;44.640;7.494;2024-01-11T06:29:27;4.60;99.90
39957;DHT22;48483;44.640;7.494;2024-01-11T06:31:54;4.60;99.90
39957;DHT22;48483;44.640;7.494;2024-01-11T06:34:21;4.60;99.90
39957;DHT22;48483;44.640;7.494;2024-01-11T06:36:47;4.60;99.90
39957;DHT22;48483;44.640;7.494;2024-01-11T06:39:14;4.70;99.90
39957;DHT22;48483;44.640;7.494;2024-01-11T06:41:41;4.60;99.90
39957;DHT22;48483;44.640;7.494;2024-01-11T06:44:09;4.70;99.90
39957;DHT22;48483;44.640;7.494;2024-01-11T06:46:35;4.70;99.90
39957;DHT22;48483;44.640;7.494;2024-01-11T06:49:02;4.70;99.90
39957;DHT22;48483;44.640;7.494;2024-01-11T06:51:29;4.70;99.90
39957;DHT22;48483;44.640;7.494;2024-01-11T06:53:56;4.70;99.90
39957;DHT22;48483;44.640;7.494;2024-01-11T06:56:23;4.70;99.90
39957;DHT22;48483;44.640;7.494;2024-01-11T06:58:50;4.60;99.90
39957;DHT22;48483;44.640;7.494;2024-01-11T07:01:18;4.60;99.90
39957;DHT22;48483;44.640;7.494;2024-01-11T07:03:45;4.60;99.90
39957;DHT22;48483;44.640;7.494;2024-01-11T07:06:12;4.60;99.90
39957;DHT22;48483;44.640;7.494;2024-01-11T07:08:39;4.60;99.90
39957;DHT22;48483;44.640;7.494;2024-01-11T07:11:06;4.60;99.90
39957;DHT22;48483;44.640;7.494;2024-01-11T07:13:33;4.60;99.90
39957;DHT22;48483;44.640;7.494;2024-01-11T07:16:00;4.60;99.90
39957;DHT22;48483;44.640;7.494;2024-01-11T07:18:30;4.60;99.90
39957;DHT22;48483;44.640;7.494;2024-01-11T07:20:58;4.60;99.90
39957;DHT22;48483;44.640;7.494;2024-01-11T07:23:26;4.60;99.90
39957;DHT22;48483;44.640;7.494;2024-01-11T07:25:53;4.60;99.90
39957;DHT22;48483;44.640;7.494;2024-01-11T07:28:20;4.60;99.90
39957;DHT22;48483;44.640;7.494;2024-01-11T07:30:51;4.50;99.90
39957;DHT22;48483;44.640;7.494;2024-01-11T07:33:19;4.60;99.90
39957;DHT22;48483;44.640;7.494;2024-01-11T07:35:47;4.50;99.90
39957;DHT22;48483;44.640;7.494;2024-01-11T07:38:14;4.60;99.90
39957;DHT22;48483;44.640;7.494;2024-01-11T07:40:40;4.60;99.90
39957;DHT22;48483;44.640;7.494;2024-01-11T07:43:07;4.60;99.90
39957;DHT22;48483;44.640;7.494;2024-01-11T07:45:34;4.60;99.90
39957;DHT22;48483;44.640;7.494;2024-01-11T07:48:01;4.60;99.90
39957;DHT22;48483;44.640;7.494;2024-01-11T07:50:30;4.60;99.90
39957;DHT22;48483;44.640;7.494;2024-01-11T07:52:58;4.60;99.90
39957;DHT22;48483;44.640;7.494;2024-01-11T07:55:24;4.70;99.90
39957;DHT22;48483;44.640;7.494;2024-01-11T07:57:52;4.70;99.90
39957;DHT22;48483;44.640;7.494;2024-01-11T08:00:19;4.70;99.90
39957;DHT22;48483;44.640;7.494;2024-01-11T08:02:46;4.70;99.90
39957;DHT22;48483;44.640;7.494;2024-01-11T08:05:13;4.70;99.90
39957;DHT22;48483;44.640;7.494;2024-01-11T08:07:39;4.70;99.90
39957;DHT22;48483;44.640;7.494;2024-01-11T08:10:10;4.80;99.90
39957;DHT22;48483;44.640;7.494;2024-01-11T08:12:36;4.80;99.90
39957;DHT22;48483;44.640;7.494;2024-01-11T08:15:04;4.80;99.90
39957;DHT22;48483;44.640;7.494;2024-01-11T08:17:31;4.90;99.90
39957;DHT22;48483;44.640;7.494;2024-01-11T08:19:57;5.00;99.90
39957;DHT22;48483;44.640;7.494;2024-01-11T08:22:24;5.10;99.90
39957;DHT22;48483;44.640;7.494;2024-01-11T08:24:51;5.10;99.90
39957;DHT22;48483;44.640;7.494;2024-01-11T08:27:19;5.20;99.90
39957;DHT22;48483;44.640;7.494;2024-01-11T08:29:45;5.20;99.90
39957;DHT22;48483;44.640;7.494;2024-01-11T08:32:13;5.20;99.90
39957;DHT22;48483;44.640;7.494;2024-01-11T08:34:39;5.30;99.90
39957;DHT22;48483;44.640;7.494;2024-01-11T08:37:06;5.30;99.90
39957;DHT22;48483;44.640;7.494;2024-01-11T08:39:32;5.30;99.90
39957;DHT22;48483;44.640;7.494;2024-01-11T08:42:00;5.40;99.90
39957;DHT22;48483;44.640;7.494;2024-01-11T08:44:28;5.30;99.90
39957;DHT22;48483;44.640;7.494;2024-01-11T08:46:56;5.30;99.90
39957;DHT22;48483;44.640;7.494;2024-01-11T08:49:23;5.30;99.90
39957;DHT22;48483;44.640;7.494;2024-01-11T08:51:51;5.40;99.90
39957;DHT22;48483;44.640;7.494;2024-01-11T08:54:17;5.30;99.90
39957;DHT22;48483;44.640;7.494;2024-01-11T08:56:47;5.30;99.90
39957;DHT22;48483;44.640;7.494;2024-01-11T08:59:14;5.40;99.90
39957;DHT22;48483;44.640;7.494;2024-01-11T09:01:42;5.40;99.90
39957;DHT22;48483;44.640;7.494;2024-01-11T09:04:08;5.50;99.90
39957;DHT22;48483;44.640;7.494;2024-01-11T09:06:35;5.50;99.90
39957;DHT22;48483;44.640;7.494;2024-01-11T09:09:02;5.50;99.90
39957;DHT22;48483;44.640;7.494;2024-01-11T09:11:29;5.50;99.90
39957;DHT22;48483;44.640;7.494;2024-01-11T09:13:56;5.40;99.90
39957;DHT22;48483;44.640;7.494;2024-01-11T09:16:23;5.50;99.90
39957;DHT22;48483;44.640;7.494;2024-01-11T09:18:52;5.60;99.90
39957;DHT22;48483;44.640;7.494;2024-01-11T09:21:19;5.70;99.90
39957;DHT22;48483;44.640;7.494;2024-01-11T09:23:45;5.70;99.90
39957;DHT22;48483;44.640;7.494;2024-01-11T09:26:12;5.70;99.90
39957;DHT22;48483;44.640;7.494;2024-01-11T09:28:39;5.60;99.90
39957;DHT22;48483;44.640;7.494;2024-01-11T09:31:06;5.50;99.90
39957;DHT22;48483;44.640;7.494;2024-01-11T09:33:32;5.40;99.90
39957;DHT22;48483;44.640;7.494;2024-01-11T09:36:01;5.40;99.90
39957;DHT22;48483;44.640;7.494;2024-01-11T09:38:27;5.50;99.90
39957;DHT22;48483;44.640;7.494;2024-01-11T09:41:03;5.50;99.90
39957;DHT22;48483;44.640;7.494;2024-01-11T09:43:33;5.40;99.90
39957;DHT22;48483;44.640;7.494;2024-01-11T09:46:03;5.40;99.90
39957;DHT22;48483;44.640;7.494;2024-01-11T09:48:32;5.50;99.90
39957;DHT22;48483;44.640;7.494;2024-01-11T09:51:03;5.50;99.90
39957;DHT22;48483;44.640;7.494;2024-01-11T09:53:33;5.60;99.90
39957;DHT22;48483;44.640;7.494;2024-01-11T09:56:00;5.60;99.90
39957;DHT22;48483;44.640;7.494;2024-01-11T09:58:27;5.60;99.90
39957;DHT22;48483;44.640;7.494;2024-01-11T10:00:55;5.70;99.90
39957;DHT22;48483;44.640;7.494;2024-01-11T10:03:23;5.70;99.90
39957;DHT22;48483;44.640;7.494;2024-01-11T10:05:50;5.70;99.90
39957;DHT22;48483;44.640;7.494;2024-01-11T10:08:20;5.80;99.90
39957;DHT22;48483;44.640;7.494;2024-01-11T10:10:47;5.80;99.90
39957;DHT22;48483;44.640;7.494;2024-01-11T10:13:14;5.90;99.90
39957;DHT22;48483;44.640;7.494;2024-01-11T10:15:41;5.90;99.90
39957;DHT22;48483;44.640;7.494;2024-01-11T10:18:07;5.90;99.90
39957;DHT22;48483;44.640;7.494;2024-01-11T10:20:34;6.00;99.90
39957;DHT22;48483;44.640;7.494;2024-01-11T10:23:02;6.00;99.90
39957;DHT22;48483;44.640;7.494;2024-01-11T10:25:30;6.00;99.90
39957;DHT22;48483;44.640;7.494;2024-01-11T10:27:58;6.00;99.90
39957;DHT22;48483;44.640;7.494;2024-01-11T10:30:25;6.00;99.90
39957;DHT22;48483;44.640;7.494;2024-01-11T10:32:52;6.00;99.90
39957;DHT22;48483;44.640;7.494;2024-01-11T10:35:19;6.00;99.90
39957;DHT22;48483;44.640;7.494;2024-01-11T10:37:50;6.10;99.90
39957;DHT22;48483;44.640;7.494;2024-01-11T10:40:18;6.00;99.90
39957;DHT22;48483;44.640;7.494;2024-01-11T10:42:52;6.00;99.90
39957;DHT22;48483;44.640;7.494;2024-01-11T10:45:20;5.90;99.90
39957;DHT22;48483;44.640;7.494;2024-01-11T10:47:51;5.90;99.90
39957;DHT22;48483;44.640;7.494;2024-01-11T10:50:22;5.80;99.90
39957;DHT22;48483;44.640;7.494;2024-01-11T10:52:59;5.70;99.90
39957;DHT22;48483;44.640;7.494;2024-01-11T10:55:31;5.90;99.90
39957;DHT22;48483;44.640;7.494;2024-01-11T10:58:00;5.90;99.90
39957;DHT22;48483;44.640;7.494;2024-01-11T11:00:27;5.90;99.90
39957;DHT22;48483;44.640;7.494;2024-01-11T11:02:54;6.00;99.90
39957;DHT22;48483;44.640;7.494;2024-01-11T11:05:22;6.10;99.90
39957;DHT22;48483;44.640;7.494;2024-01-11T11:07:51;6.10;99.90
39957;DHT22;48483;44.640;7.494;2024-01-11T11:10:19;6.10;99.90
39957;DHT22;48483;44.640;7.494;2024-01-11T11:12:48;6.00;99.90
39957;DHT22;48483;44.640;7.494;2024-01-11T11:15:17;6.10;99.90
39957;DHT22;48483;44.640;7.494;2024-01-11T11:17:44;6.00;99.90
39957;DHT22;48483;44.640;7.494;2024-01-11T11:20:12;6.10;99.90
39957;DHT22;48483;44.640;7.494;2024-01-11T11:22:40;6.20;99.90
39957;DHT22;48483;44.640;7.494;2024-01-11T11:25:08;6.20;99.90
39957;DHT22;48483;44.640;7.494;2024-01-11T11:27:35;6.10;99.90
39957;DHT22;48483;44.640;7.494;2024-01-11T11:30:03;6.10;99.90
39957;DHT22;48483;44.640;7.494;2024-01-11T11:32:38;6.20;99.90
39957;DHT22;48483;44.640;7.494;2024-01-11T11:35:08;6.30;99.90
39957;DHT22;48483;44.640;7.494;2024-01-11T11:37:36;6.30;99.90
39957;DHT22;48483;44.640;7.494;2024-01-11T11:40:04;6.40;99.90
39957;DHT22;48483;44.640;7.494;2024-01-11T11:42:34;6.40;99.90
39957;DHT22;48483;44.640;7.494;2024-01-11T11:45:01;6.50;99.90
39957;DHT22;48483;44.640;7.494;2024-01-11T11:47:34;6.50;99.90
39957;DHT22;48483;44.640;7.494;2024-01-11T11:50:07;6.40;99.90
39957;DHT22;48483;44.640;7.494;2024-01-11T11:52:35;6.50;99.90
39957;DHT22;48483;44.640;7.494;2024-01-11T11:55:02;6.60;99.90
39957;DHT22;48483;44.640;7.494;2024-01-11T11:57:29;6.60;99.90
39957;DHT22;48483;44.640;7.494;2024-01-11T11:59:56;6.60;99.90
39957;DHT22;48483;44.640;7.494;2024-01-11T12:02:26;6.60;99.90
39957;DHT22;48483;44.640;7.494;2024-01-11T12:04:53;6.60;99.90
39957;DHT22;48483;44.640;7.494;2024-01-11T12:07:22;6.60;99.90
39957;DHT22;48483;44.640;7.494;2024-01-11T12:09:50;6.60;99.90
39957;DHT22;48483;44.640;7.494;2024-01-11T12:12:17;6.60;99.90
39957;DHT22;48483;44.640;7.494;2024-01-11T12:14:47;6.60;99.90
39957;DHT22;48483;44.640;7.494;2024-01-11T12:17:13;6.70;99.90
39957;DHT22;48483;44.640;7.494;2024-01-11T12:19:40;6.70;99.90
39957;DHT22;48483;44.640;7.494;2024-01-11T12:22:07;6.70;99.90
39957;DHT22;48483;44.640;7.494;2024-01-11T12:24:35;6.70;99.90
39957;DHT22;48483;44.640;7.494;2024-01-11T12:27:02;6.80;99.90
39957;DHT22;48483;44.640;7.494;2024-01-11T12:29:29;6.90;99.90
39957;DHT22;48483;44.640;7.494;2024-01-11T12:31:57;6.90;99.90
39957;DHT22;48483;44.640;7.494;2024-01-11T12:34:25;6.90;99.90
39957;DHT22;48483;44.640;7.494;2024-01-11T12:36:52;7.00;99.90
39957;DHT22;48483;44.640;7.494;2024-01-11T12:39:19;7.00;99.90
39957;DHT22;48483;44.640;7.494;2024-01-11T12:41:51;7.00;99.90
39957;DHT22;48483;44.640;7.494;2024-01-11T12:44:18;7.00;99.90
39957;DHT22;48483;44.640;7.494;2024-01-11T12:46:47;7.00;99.90
39957;DHT22;48483;44.640;7.494;2024-01-11T12:49:15;7.10;99.90
39957;DHT22;48483;44.640;7.494;2024-01-11T12:51:42;7.20;99.90
39957;DHT22;48483;44.640;7.494;2024-01-11T12:54:12;7.20;99.90
39957;DHT22;48483;44.640;7.494;2024-01-11T12:56:43;7.10;99.90
39957;DHT22;48483;44.640;7.494;2024-01-11T12:59:11;7.20;99.90
39957;DHT22;48483;44.640;7.494;2024-01-11T13:01:38;7.20;99.90
39957;DHT22;48483;44.640;7.494;2024-01-11T13:04:09;7.20;99.90
39957;DHT22;48483;44.640;7.494;2024-01-11T13:06:35;7.20;99.90
39957;DHT22;48483;44.640;7.494;2024-01-11T13:09:02;7.20;99.90
39957;DHT22;48483;44.640;7.494;2024-01-11T13:11:29;7.20;99.90
39957;DHT22;48483;44.640;7.494;2024-01-11T13:13:56;7.30;99.90
39957;DHT22;48483;44.640;7.494;2024-01-11T13:16:26;7.30;99.90
39957;DHT22;48483;44.640;7.494;2024-01-11T13:18:53;7.30;99.90
39957;DHT22;48483;44.640;7.494;2024-01-11T13:21:20;7.30;99.90
39957;DHT22;48483;44.640;7.494;2024-01-11T13:23:46;7.30;99.90
39957;DHT22;48483;44.640;7.494;2024-01-11T13:26:13;7.30;99.90
39957;DHT22;48483;44.640;7.494;2024-01-11T13:28:40;7.30;99.90
39957;DHT22;48483;44.640;7.494;2024-01-11T13:31:07;7.30;99.90
39957;DHT22;48483;44.640;7.494;2024-01-11T13:33:38;7.30;99.90
39957;DHT22;48483;44.640;7.494;2024-01-11T13:36:06;7.40;99.90
39957;DHT22;48483;44.640;7.494;2024-01-11T13:38:34;7.40;99.90
39957;DHT22;48483;44.640;7.494;2024-01-11T13:41:00;7.40;99.90
39957;DHT22;48483;44.640;7.494;2024-01-11T13:43:27;7.40;99.90
39957;DHT22;48483;44.640;7.494;2024-01-11T13:45:54;7.40;99.90
39957;DHT22;48483;44.640;7.494;2024-01-11T13:48:21;7.40;99.90
39957;DHT22;48483;44.640;7.494;2024-01-11T13:50:49;7.40;99.90
39957;DHT22;48483;44.640;7.494;2024-01-11T13:53:16;7.40;99.90
39957;DHT22;48483;44.640;7.494;2024-01-11T13:55:43;7.40;99.90
39957;DHT22;48483;44.640;7.494;2024-01-11T13:58:10;7.40;99.90
39957;DHT22;48483;44.640;7.494;2024-01-11T14:00:38;7.40;99.90
39957;DHT22;48483;44.640;7.494;2024-01-11T14:03:05;7.40;99.90
39957;DHT22;48483;44.640;7.494;2024-01-11T14:05:33;7.40;99.90
39957;DHT22;48483;44.640;7.494;2024-01-11T14:08:01;7.40;99.90
39957;DHT22;48483;44.640;7.494;2024-01-11T14:10:31;7.40;99.90
39957;DHT22;48483;44.640;7.494;2024-01-11T14:13:01;7.40;99.90
39957;DHT22;48483;44.640;7.494;2024-01-11T14:15:28;7.40;99.90
39957;DHT22;48483;44.640;7.494;2024-01-11T14:17:55;7.50;99.90
39957;DHT22;48483;44.640;7.494;2024-01-11T14:20:21;7.50;99.90
39957;DHT22;48483;44.640;7.494;2024-01-11T14:22:49;7.50;99.90
39957;DHT22;48483;44.640;7.494;2024-01-11T14:25:18;7.40;99.90
39957;DHT22;48483;44.640;7.494;2024-01-11T14:27:45;7.40;99.90
39957;DHT22;48483;44.640;7.494;2024-01-11T14:30:12;7.50;99.90
39957;DHT22;48483;44.640;7.494;2024-01-11T14:32:39;7.50;99.90
39957;DHT22;48483;44.640;7.494;2024-01-11T14:35:08;7.50;99.90
39957;DHT22;48483;44.640;7.494;2024-01-11T14:37:36;7.50;99.90
39957;DHT22;48483;44.640;7.494;2024-01-11T14:40:04;7.50;99.90
39957;DHT22;48483;44.640;7.494;2024-01-11T14:42:32;7.50;99.90
39957;DHT22;48483;44.640;7.494;2024-01-11T14:44:59;7.50;99.90
39957;DHT22;48483;44.640;7.494;2024-01-11T14:47:26;7.50;99.90
39957;DHT22;48483;44.640;7.494;2024-01-11T14:49:52;7.50;99.90
39957;DHT22;48483;44.640;7.494;2024-01-11T14:52:19;7.50;99.90
39957;DHT22;48483;44.640;7.494;2024-01-11T14:54:46;7.50;99.90
39957;DHT22;48483;44.640;7.494;2024-01-11T14:57:14;7.50;99.90
39957;DHT22;48483;44.640;7.494;2024-01-11T14:59:42;7.40;99.90
39957;DHT22;48483;44.640;7.494;2024-01-11T15:02:08;7.40;99.90
39957;DHT22;48483;44.640;7.494;2024-01-11T15:04:35;7.40;99.90
39957;DHT22;48483;44.640;7.494;2024-01-11T15:07:02;7.50;99.90
39957;DHT22;48483;44.640;7.494;2024-01-11T15:09:29;7.40;99.90
39957;DHT22;48483;44.640;7.494;2024-01-11T15:11:56;7.40;99.90
39957;DHT22;48483;44.640;7.494;2024-01-11T15:14:22;7.40;99.90
39957;DHT22;48483;44.640;7.494;2024-01-11T15:16:53;7.40;99.90
39957;DHT22;48483;44.640;7.494;2024-01-11T15:19:20;7.40;99.90
39957;DHT22;48483;44.640;7.494;2024-01-11T15:21:46;7.40;99.90
39957;DHT22;48483;44.640;7.494;2024-01-11T15:24:13;7.30;99.90
39957;DHT22;48483;44.640;7.494;2024-01-11T15:26:40;7.30;99.90
39957;DHT22;48483;44.640;7.494;2024-01-11T15:29:06;7.20;99.90
39957;DHT22;48483;44.640;7.494;2024-01-11T15:31:33;7.20;99.90
39957;DHT22;48483;44.640;7.494;2024-01-11T15:34:05;7.20;99.90
39957;DHT22;48483;44.640;7.494;2024-01-11T15:36:33;7.10;99.90
39957;DHT22;48483;44.640;7.494;2024-01-11T15:39:01;7.10;99.90
39957;DHT22;48483;44.640;7.494;2024-01-11T15:41:29;7.10;99.90
39957;DHT22;48483;44.640;7.494;2024-01-11T15:43:57;7.00;99.90
39957;DHT22;48483;44.640;7.494;2024-01-11T15:46:24;7.00;99.90